Main page
METAR-TAF:

METAR-TAF

Airports :

Växjö Småland Airport

Växjö, Sweden

latitude: 56-51N, longitude: 014-50E, elevation: 199 m

Current weather observation

The report was made 27 minutes ago, at 17:20 UTC
Wind 5 kt from the South/Southwest
Temperature 5°C
Humidity 87%
Pressure 1014 hPa
Visibility 10 km or more

METAR: ESMX 251720Z AUTO 20005KT 9999 SCT016/// OVC025/// 05/03 Q1014

Time: 18:47 (17:47 UTC)

Forecast

The report was made 17 minutes ago, at 17:30 UTC
Forecast valid from 24 at 18 UTC to 24 at 22 UTC
Wind 10 kt from the West/Southwest
Visibility 10 km or more
Broken clouds at a height of 1700 ft
Probability 40%
from 24 at 18 UTC to 24 at 22 UTC
Broken clouds at a height of 900 ft

TAF: ESMX 241730Z 2418/2422 25010KT 9999 BKN017 PROB40 2418/2422 BKN009

Weather observations and forecasts of more than 4000 airports (METAR and TAF reports).

The available stations are represented by yellow and red dots on the map.

Hover mouse over dot to see the name of the station.

Then click to see weather observations and forecasts.

To change the map : click on the green buttons with a black cross to zoom in, on the green button with a dash to zoom out, or on the green arrows for adjacent maps.


METAR-TAF: